Station Historical Data
Daily Summary for April 24, 2012 Units:  Metric    English   Both
« Previous Day
Next Day »
Daily Weekly Monthly Yearly Custom
  High: Low: Average:
Temperature: 20.9 °C 2.9 °C 12.4 °C
Dew Point: 8.4 °C 1.2 °C 4.8 °C
Humidity: 92% 38% 64%
Wind Speed: 24.1km/h 0km/h 5.8km/h
Wind Gust: 30.6km/h - -
Wind- - WSW
Pressure: 1015.1 hPa 1009.7 hPa -
Precipitation: 0 mm    
Historical Graphs
 
 
Tabular Data for April 24, 2012
Time Temperature Dew Point Pressure Wind Wind Speed Wind Gust Humidity Rainfall Rate (Hourly) Conditions
00:00 6.3 °C 2.8 °C 1013.8 hPa Calm     78% 0 mm
00:01 6.3 °C 2.6 °C 1013.8 hPa Calm     77% 0 mm
00:06 5.8 °C 2.3 °C 1013.8 hPa Calm     78% 0 mm
00:11 5.4 °C 2.1 °C 1013.8 hPa Calm     79% 0 mm
00:16 5.1 °C 1.7 °C 1013.8 hPa Calm     79% 0 mm
00:21 4.9 °C 1.6 °C 1013.4 hPa Calm     79% 0 mm
00:26 4.7 °C 1.2 °C 1013.4 hPa Calm     78% 0 mm
00:31 4.5 °C 1.2 °C 1013.8 hPa Calm     79% 0 mm
00:36 4.5 °C 1.9 °C 1013.4 hPa Calm     83% 0 mm
00:41 4.6 °C 1.9 °C 1013.4 hPa Calm     83% 0 mm
00:46 4.4 °C 1.8 °C 1013.4 hPa Calm     83% 0 mm
00:51 4.2 °C 1.7 °C 1013.4 hPa Calm     84% 0 mm
00:56 4 °C 1.7 °C 1013.4 hPa Calm     85% 0 mm
01:01 3.8 °C 1.6 °C 1013.4 hPa Calm     85% 0 mm
01:06 3.8 °C 1.7 °C 1013.4 hPa Calm     86% 0 mm
01:11 3.7 °C 1.6 °C 1013.4 hPa Calm     86% 0 mm
01:16 3.9 °C 1.9 °C 1013.4 hPa Calm     87% 0 mm
01:21 4 °C 1.7 °C 1013.4 hPa Calm     85% 0 mm
01:26 4.2 °C 1.7 °C 1013.4 hPa Calm     84% 0 mm
01:31 4.2 °C 1.6 °C 1013.4 hPa Calm     83% 0 mm
01:37 4.2 °C 1.7 °C 1013.4 hPa Calm     84% 0 mm
01:42 4.1 °C 1.8 °C 1013.1 hPa Calm     85% 0 mm
01:47 4.1 °C 1.9 °C 1013.1 hPa Calm     86% 0 mm
01:52 4 °C 2.2 °C 1013.1 hPa Calm     88% 0 mm
01:57 3.8 °C 2.2 °C 1013.1 hPa Calm     89% 0 mm
02:02 3.9 °C 2.6 °C 1013.1 hPa Calm     91% 0 mm
02:07 4.1 °C 2.8 °C 1013.1 hPa Calm     91% 0 mm
02:12 4 °C 2.5 °C 1013.1 hPa Calm     90% 0 mm
02:17 4 °C 2.7 °C 1013.1 hPa Calm     91% 0 mm
02:22 4 °C 2.7 °C 1013.1 hPa Calm     91% 0 mm
02:27 3.9 °C 2.4 °C 1013.1 hPa Calm     90% 0 mm
02:32 3.8 °C 2.3 °C 1013.1 hPa Calm     90% 0 mm
02:37 3.8 °C 2.3 °C 1013.1 hPa Calm     90% 0 mm
02:42 3.7 °C 2.2 °C 1013.1 hPa Calm     90% 0 mm
02:47 3.7 °C 2.2 °C 1013.1 hPa Calm     90% 0 mm
02:52 3.7 °C 2.2 °C 1013.1 hPa Calm     90% 0 mm
02:57 3.8 °C 2.5 °C 1013.1 hPa Calm     91% 0 mm
03:02 4 °C 2.7 °C 1013.1 hPa Calm     91% 0 mm
03:07 4 °C 2.3 °C 1013.1 hPa Calm     89% 0 mm
03:12 4.1 °C 2.2 °C 1012.8 hPa Calm   1.6 km/h 88% 0 mm
03:17 4.2 °C 2.2 °C 1012.8 hPa Calm     87% 0 mm
03:22 4.2 °C 2.1 °C 1012.8 hPa Calm     86% 0 mm
03:27 4.2 °C 2.1 °C 1012.8 hPa Calm   1.6 km/h 86% 0 mm
03:32 4.2 °C 2.1 °C 1012.8 hPa Calm     86% 0 mm
03:37 4.2 °C 1.9 °C 1012.8 hPa Calm     85% 0 mm
03:42 4.1 °C 1.8 °C 1012.8 hPa Calm     85% 0 mm
03:47 4.1 °C 2 °C 1012.8 hPa Calm     86% 0 mm
03:52 4.2 °C 2.1 °C 1012.8 hPa Calm   1.6 km/h 86% 0 mm
03:57 4.2 °C 2.1 °C 1012.8 hPa Calm     86% 0 mm
04:02 4.1 °C 1.8 °C 1012.8 hPa Calm     85% 0 mm
04:07 4.1 °C 1.8 °C 1012.8 hPa Calm     85% 0 mm
04:12 4 °C 1.7 °C 1012.8 hPa Calm     85% 0 mm
04:17 3.9 °C 1.7 °C 1012.8 hPa Calm     85% 0 mm
04:22 3.9 °C 1.7 °C 1012.8 hPa Calm     85% 0 mm
04:27 3.8 °C 1.6 °C 1012.8 hPa Calm     85% 0 mm
04:32 3.8 °C 1.7 °C 1012.8 hPa Calm     86% 0 mm
04:37 3.6 °C 1.5 °C 1012.8 hPa Calm     86% 0 mm
04:42 3.4 °C 1.5 °C 1012.8 hPa Calm     87% 0 mm
04:48 3.3 °C 1.5 °C 1013.1 hPa Calm     88% 0 mm
04:53 3.1 °C 1.5 °C 1012.8 hPa Calm     89% 0 mm
04:58 2.9 °C 1.3 °C 1012.8 hPa Calm     89% 0 mm
05:03 2.9 °C 1.6 °C 1012.8 hPa Calm     91% 0 mm
05:08 3.1 °C 1.8 °C 1012.8 hPa Calm     91% 0 mm
05:13 3.2 °C 2.1 °C 1012.8 hPa Calm     92% 0 mm
05:18 3.2 °C 1.8 °C 1012.8 hPa Calm     91% 0 mm
05:23 3.1 °C 1.6 °C 1012.8 hPa Calm     90% 0 mm
05:28 3.2 °C 1.7 °C 1012.8 hPa Calm     90% 0 mm
05:33 3.3 °C 1.8 °C 1013.1 hPa Calm     90% 0 mm
05:38 3.5 °C 2 °C 1013.1 hPa Calm     90% 0 mm
05:43 3.5 °C 2 °C 1013.1 hPa Calm     90% 0 mm
05:48 3.5 °C 2 °C 1013.1 hPa Calm     90% 0 mm
05:54 3.6 °C 2.3 °C 1013.1 hPa Calm     91% 0 mm
05:59 3.6 °C 2.2 °C 1013.1 hPa Calm     91% 0 mm
06:04 3.4 °C 2.1 °C 1013.1 hPa Calm     91% 0 mm
06:09 3.5 °C 2.2 °C 1013.1 hPa Calm     91% 0 mm
06:14 3.5 °C 2.2 °C 1013.1 hPa Calm     91% 0 mm
06:19 3.6 °C 2.1 °C 1013.1 hPa Calm     90% 0 mm
06:24 3.8 °C 2.3 °C 1013.1 hPa Calm   1.6 km/h 90% 0 mm
06:29 3.8 °C 2.4 °C 1013.4 hPa Calm     91% 0 mm
06:34 3.7 °C 2.4 °C 1013.4 hPa Calm     91% 0 mm
06:39 3.6 °C 2.1 °C 1013.4 hPa Calm     90% 0 mm
06:44 3.4 °C 1.9 °C 1013.4 hPa Calm     90% 0 mm
06:49 3.3 °C 1.8 °C 1013.4 hPa Calm     90% 0 mm
06:54 3.2 °C 1.7 °C 1013.4 hPa Calm     90% 0 mm
06:59 3.2 °C 1.7 °C 1013.4 hPa Calm     90% 0 mm
07:04 3.2 °C 1.7 °C 1013.4 hPa Calm     90% 0 mm
07:09 3.2 °C 1.9 °C 1013.4 hPa Calm     91% 0 mm
07:14 3.3 °C 2.2 °C 1013.8 hPa Calm     92% 0 mm
07:19 3.4 °C 2.2 °C 1013.8 hPa Calm     92% 0 mm
07:24 3.4 °C 2.2 °C 1013.8 hPa Calm     92% 0 mm
07:29 3.3 °C 2.1 °C 1013.8 hPa Calm     92% 0 mm
07:34 3.3 °C 2.1 °C 1013.8 hPa Calm     92% 0 mm
07:39 3.4 °C 2.2 °C 1013.8 hPa Calm     92% 0 mm
07:44 3.5 °C 2.3 °C 1013.8 hPa Calm     92% 0 mm
07:50 3.8 °C 2.3 °C 1013.8 hPa Calm     90% 0 mm
07:55 4.2 °C 2.7 °C 1013.8 hPa Calm     90% 0 mm
08:00 4.6 °C 2.9 °C 1014.1 hPa Calm   1.6 km/h 89% 0 mm
08:05 4.9 °C 2.9 °C 1014.1 hPa West 1.6 km/h 1.6 km/h 87% 0 mm
08:10 5.3 °C 3.3 °C 1014.1 hPa Calm   1.6 km/h 87% 0 mm
08:15 5.6 °C 3.4 °C 1014.1 hPa WSW 3.2 km/h 6.4 km/h 86% 0 mm
08:20 6 °C 3.7 °C 1014.1 hPa West 3.2 km/h 4.8 km/h 85% 0 mm
08:25 6.3 °C 3.9 °C 1014.1 hPa Calm   3.2 km/h 85% 0 mm
08:30 6.7 °C 4.2 °C 1014.4 hPa Calm   3.2 km/h 84% 0 mm
08:35 7.1 °C 4.4 °C 1014.4 hPa Calm   4.8 km/h 83% 0 mm
08:40 7.6 °C 4.5 °C 1014.4 hPa West 4.8 km/h 9.7 km/h 81% 0 mm
08:45 7.9 °C 4.9 °C 1014.4 hPa West 1.6 km/h 6.4 km/h 81% 0 mm
08:50 8.3 °C 5.2 °C 1014.4 hPa WNW 3.2 km/h 4.8 km/h 81% 0 mm
08:55 8.6 °C 5.4 °C 1014.8 hPa West 3.2 km/h 6.4 km/h 80% 0 mm
09:00 8.9 °C 5.1 °C 1014.8 hPa NW 6.4 km/h 11.3 km/h 77% 0 mm
09:05 9.3 °C 5.4 °C 1014.8 hPa WNW 8 km/h 9.7 km/h 77% 0 mm
09:10 9.5 °C 5.3 °C 1014.8 hPa WNW 4.8 km/h 9.7 km/h 75% 0 mm
09:15 9.8 °C 5.4 °C 1014.8 hPa WNW 11.3 km/h 12.9 km/h 74% 0 mm
09:20 9.9 °C 5.7 °C 1014.8 hPa WSW 9.7 km/h 12.9 km/h 75% 0 mm
09:25 10.3 °C 5.8 °C 1014.8 hPa West 4.8 km/h 11.3 km/h 74% 0 mm
09:30 10.4 °C 5.6 °C 1014.8 hPa West 6.4 km/h 11.3 km/h 72% 0 mm
09:35 10.7 °C 5.6 °C 1014.8 hPa West 9.7 km/h 9.7 km/h 71% 0 mm
09:40 10.9 °C 5.4 °C 1014.8 hPa WSW 4.8 km/h 12.9 km/h 69% 0 mm
09:41 10.9 °C 5.7 °C 1014.8 hPa West 8 km/h 12.9 km/h 70% 0 mm
09:46 11.2 °C 6.3 °C 1014.8 hPa WNW 9.7 km/h 11.3 km/h 72% 0 mm
09:51 11.5 °C 6.2 °C 1014.8 hPa WNW 8 km/h 9.7 km/h 70% 0 mm
09:56 11.9 °C 6.2 °C 1014.8 hPa West 9.7 km/h 9.7 km/h 68% 0 mm
10:01 12.1 °C 6.2 °C 1014.8 hPa WNW 6.4 km/h 8 km/h 67% 0 mm
10:06 12.4 °C 6.9 °C 1014.8 hPa West 8 km/h 9.7 km/h 69% 0 mm
10:11 12.7 °C 6.3 °C 1014.8 hPa WNW 8 km/h 8 km/h 65% 0 mm
10:16 13.1 °C 6.8 °C 1014.8 hPa West 4.8 km/h 8 km/h 66% 0 mm
10:21 13.3 °C 6.2 °C 1014.8 hPa West 11.3 km/h 19.3 km/h 62% 0 mm
10:26 13.7 °C 7.1 °C 1014.8 hPa NW 6.4 km/h 9.7 km/h 64% 0 mm
10:31 14.1 °C 6.7 °C 1014.8 hPa West 14.5 km/h 14.5 km/h 61% 0 mm
10:36 14.2 °C 6.5 °C 1014.8 hPa West 14.5 km/h 16.1 km/h 60% 0 mm
10:41 14.2 °C 6 °C 1014.8 hPa WNW 12.9 km/h 19.3 km/h 58% 0 mm
10:47 14.5 °C 6.8 °C 1014.8 hPa West 1.6 km/h 11.3 km/h 60% 0 mm
10:52 14.8 °C 6.3 °C 1014.8 hPa WNW 14.5 km/h 19.3 km/h 57% 0 mm
10:57 14.8 °C 6.8 °C 1015.1 hPa WNW 9.7 km/h 12.9 km/h 59% 0 mm
11:02 15 °C 7.1 °C 1014.8 hPa WNW 11.3 km/h 14.5 km/h 59% 0 mm
11:07 15.2 °C 6.8 °C 1014.8 hPa NW 8 km/h 14.5 km/h 57% 0 mm
11:12 15.6 °C 7.1 °C 1014.8 hPa WNW 11.3 km/h 12.9 km/h 57% 0 mm
11:17 15.8 °C 6.3 °C 1014.8 hPa West 17.7 km/h 17.7 km/h 53% 0 mm
11:22 16 °C 6.2 °C 1014.8 hPa WNW 9.7 km/h 17.7 km/h 52% 0 mm
11:27 16.2 °C 6 °C 1014.8 hPa WNW 9.7 km/h 24.1 km/h 51% 0 mm
11:32 16.2 °C 5.7 °C 1015.1 hPa WNW 8 km/h 22.5 km/h 50% 0 mm
11:37 16.5 °C 5.8 °C 1015.1 hPa WNW 20.9 km/h 20.9 km/h 49% 0 mm
11:42 16.3 °C 3.7 °C 1015.1 hPa WNW 20.9 km/h 25.7 km/h 43% 0 mm
11:47 16.3 °C 4.7 °C 1014.8 hPa WNW 9.7 km/h 22.5 km/h 46% 0 mm
11:52 16.4 °C 4.8 °C 1014.8 hPa WNW 14.5 km/h 24.1 km/h 46% 0 mm
11:57 16.5 °C 4.8 °C 1014.8 hPa WNW 14.5 km/h 24.1 km/h 46% 0 mm
12:02 16.7 °C 4.7 °C 1014.8 hPa WNW 16.1 km/h 20.9 km/h 45% 0 mm
12:07 16.7 °C 2.7 °C 1014.8 hPa West 6.4 km/h 30.6 km/h 39% 0 mm
12:12 16.7 °C 4.4 °C 1014.8 hPa WSW 14.5 km/h 19.3 km/h 44% 0 mm
12:17 16.8 °C 4.4 °C 1014.8 hPa NNW 17.7 km/h 24.1 km/h 44% 0 mm
12:22 17 °C 4.7 °C 1014.8 hPa NW 6.4 km/h 30.6 km/h 44% 0 mm
12:28 17 °C 3.3 °C 1014.8 hPa West 16.1 km/h 24.1 km/h 40% 0 mm
12:33 17.2 °C 4.8 °C 1014.8 hPa NNW 14.5 km/h 20.9 km/h 44% 0 mm
12:38 17.3 °C 4.9 °C 1014.4 hPa SW 14.5 km/h 19.3 km/h 44% 0 mm
12:43 17.2 °C 4.2 °C 1014.4 hPa WNW 3.2 km/h 20.9 km/h 42% 0 mm
12:48 17.5 °C 4.8 °C 1014.4 hPa WNW 11.3 km/h 16.1 km/h 43% 0 mm
12:53 17.4 °C 4.3 °C 1014.1 hPa West 17.7 km/h 24.1 km/h 42% 0 mm
12:58 17.3 °C 4.6 °C 1014.1 hPa WNW 9.7 km/h 19.3 km/h 43% 0 mm
13:03 17.4 °C 4.3 °C 1014.1 hPa WSW 19.3 km/h 22.5 km/h 42% 0 mm
13:08 17.6 °C 4.2 °C 1014.1 hPa WNW 12.9 km/h 19.3 km/h 41% 0 mm
13:13 17.8 °C 4.8 °C 1014.1 hPa West 11.3 km/h 12.9 km/h 42% 0 mm
13:18 17.9 °C 5.4 °C 1014.1 hPa SW 8 km/h 25.7 km/h 44% 0 mm
13:23 17.9 °C 5.2 °C 1013.8 hPa West 4.8 km/h 12.9 km/h 43% 0 mm
13:28 18.1 °C 4.9 °C 1014.1 hPa WSW 14.5 km/h 19.3 km/h 42% 0 mm
13:33 18.2 °C 5.1 °C 1013.8 hPa WNW 16.1 km/h 19.3 km/h 42% 0 mm
13:38 18.1 °C 4.3 °C 1013.8 hPa WNW 8 km/h 22.5 km/h 40% 0 mm
13:43 18.3 °C 4.8 °C 1013.8 hPa SW 6.4 km/h 20.9 km/h 41% 0 mm
13:48 18.1 °C 4.3 °C 1013.8 hPa WSW 8 km/h 20.9 km/h 40% 0 mm
13:54 18.2 °C 5.1 °C 1013.4 hPa WNW 9.7 km/h 16.1 km/h 42% 0 mm
13:59 18.7 °C 5.9 °C 1013.4 hPa WNW 24.1 km/h 24.1 km/h 43% 0 mm
14:04 18.6 °C 4.7 °C 1013.4 hPa NW 8 km/h 19.3 km/h 40% 0 mm
14:07 18.7 °C 5.2 °C 1013.4 hPa West 8 km/h 16.1 km/h 41% 0 mm
14:12 18.7 °C 6.5 °C 1013.1 hPa NW 14.5 km/h 22.5 km/h 45% 0 mm
14:17 19.1 °C 7.2 °C 1013.4 hPa WSW 8 km/h 16.1 km/h 46% 0 mm
14:22 19.2 °C 5.9 °C 1013.4 hPa NW 4.8 km/h 14.5 km/h 42% 0 mm
14:27 19.3 °C 5.8 °C 1013.1 hPa NW 8 km/h 11.3 km/h 41% 0 mm
14:32 19.2 °C 6.3 °C 1013.1 hPa West 19.3 km/h 20.9 km/h 43% 0 mm
14:37 19.2 °C 6 °C 1013.1 hPa SW 9.7 km/h 11.3 km/h 42% 0 mm
14:42 19.2 °C 5.6 °C 1013.1 hPa West 14.5 km/h 22.5 km/h 41% 0 mm
14:47 19.1 °C 6.2 °C 1013.1 hPa WSW 9.7 km/h 20.9 km/h 43% 0 mm
14:52 19.3 °C 5.4 °C 1013.1 hPa West 17.7 km/h 20.9 km/h 40% 0 mm
14:57 19.3 °C 6.4 °C 1013.1 hPa WNW 4.8 km/h 14.5 km/h 43% 0 mm
15:02 19.6 °C 6.7 °C 1013.1 hPa SSW 8 km/h 20.9 km/h 43% 0 mm
15:07 19.5 °C 6.3 °C 1012.8 hPa WSW 12.9 km/h 22.5 km/h 42% 0 mm
15:12 19.7 °C 7.1 °C 1012.8 hPa WSW 16.1 km/h 16.1 km/h 44% 0 mm
15:17 19.8 °C 7.2 °C 1012.8 hPa WSW 19.3 km/h 19.3 km/h 44% 0 mm
15:22 19.8 °C 6.2 °C 1012.8 hPa SSW 20.9 km/h 20.9 km/h 41% 0 mm
15:27 19.8 °C 6.2 °C 1012.8 hPa SW 9.7 km/h 17.7 km/h 41% 0 mm
15:33 19.9 °C 6.6 °C 1012.4 hPa WSW 8 km/h 17.7 km/h 42% 0 mm
15:38 20.3 °C 6.6 °C 1012.4 hPa WSW 12.9 km/h 17.7 km/h 41% 0 mm
15:43 20.3 °C 5.6 °C 1012.4 hPa WSW 16.1 km/h 22.5 km/h 38% 0 mm
15:48 20.2 °C 6.2 °C 1012.4 hPa WNW 19.3 km/h 20.9 km/h 40% 0 mm
15:53 19.7 °C 6.1 °C 1012.4 hPa WNW 9.7 km/h 19.3 km/h 41% 0 mm
15:58 19.3 °C 6.4 °C 1012.1 hPa West 6.4 km/h 14.5 km/h 43% 0 mm
16:03 19.2 °C 6.6 °C 1012.4 hPa WSW 12.9 km/h 16.1 km/h 44% 0 mm
16:08 19.3 °C 6.4 °C 1012.1 hPa SW 12.9 km/h 20.9 km/h 43% 0 mm
16:13 19.6 °C 6.4 °C 1012.1 hPa SW 4.8 km/h 12.9 km/h 42% 0 mm
16:18 19.6 °C 6 °C 1012.1 hPa WSW 12.9 km/h 17.7 km/h 41% 0 mm
16:23 19.5 °C 5.9 °C 1012.1 hPa SW 6.4 km/h 14.5 km/h 41% 0 mm
16:28 19.8 °C 6.6 °C 1011.7 hPa WNW 12.9 km/h 19.3 km/h 42% 0 mm
16:29 19.8 °C 6.2 °C 1011.7 hPa WNW 4.8 km/h 19.3 km/h 41% 0 mm
16:34 19.6 °C 6.4 °C 1011.7 hPa WNW 9.7 km/h 12.9 km/h 42% 0 mm
16:39 19.6 °C 5.9 °C 1011.7 hPa WSW 11.3 km/h 14.5 km/h 41% 0 mm
16:44 19.5 °C 5.9 °C 1011.7 hPa WSW 4.8 km/h 11.3 km/h 41% 0 mm
16:49 19.7 °C 6.8 °C 1011.7 hPa WSW 9.7 km/h 12.9 km/h 43% 0 mm
16:54 19.6 °C 6.4 °C 1011.7 hPa WSW 9.7 km/h 11.3 km/h 42% 0 mm
16:59 19.7 °C 6.4 °C 1011.7 hPa South 8 km/h 11.3 km/h 42% 0 mm
17:04 19.7 °C 6.4 °C 1011.4 hPa WNW 19.3 km/h 19.3 km/h 42% 0 mm
17:09 20.1 °C 6.4 °C 1011.4 hPa WSW 12.9 km/h 19.3 km/h 41% 0 mm
17:14 20.3 °C 6.3 °C 1011.4 hPa WSW 14.5 km/h 14.5 km/h 40% 0 mm
17:19 20.7 °C 6.2 °C 1011.4 hPa West 11.3 km/h 12.9 km/h 39% 0 mm
17:24 20.6 °C 6.5 °C 1011.1 hPa WSW 3.2 km/h 11.3 km/h 40% 0 mm
17:29 20.7 °C 6.7 °C 1011.4 hPa WSW 9.7 km/h 16.1 km/h 40% 0 mm
17:34 20.7 °C 6.2 °C 1011.4 hPa WSW 17.7 km/h 20.9 km/h 39% 0 mm
17:39 20.4 °C 6.3 °C 1011.4 hPa WSW 14.5 km/h 19.3 km/h 40% 0 mm
17:44 20.6 °C 6.8 °C 1011.1 hPa SSW 6.4 km/h 14.5 km/h 41% 0 mm
17:49 20.4 °C 6.1 °C 1011.1 hPa SW 9.7 km/h 19.3 km/h 39% 0 mm
17:54 20.3 °C 6.7 °C 1011.1 hPa West 3.2 km/h 12.9 km/h 41% 0 mm
17:59 20.6 °C 6.8 °C 1011.4 hPa SW 19.3 km/h 20.9 km/h 41% 0 mm
18:04 20.6 °C 6.1 °C 1011.1 hPa SW 12.9 km/h 19.3 km/h 39% 0 mm
18:09 20.7 °C 6.6 °C 1010.7 hPa SW 8 km/h 14.5 km/h 40% 0 mm
18:14 20.9 °C 6.4 °C 1011.1 hPa WSW 12.9 km/h 17.7 km/h 39% 0 mm
18:19 20.9 °C 6.8 °C 1010.7 hPa WSW 11.3 km/h 14.5 km/h 40% 0 mm
18:24 20.8 °C 6.7 °C 1010.7 hPa WSW 8 km/h 14.5 km/h 40% 0 mm
18:29 20.7 °C 6.6 °C 1010.7 hPa West 4.8 km/h 14.5 km/h 40% 0 mm
18:34 20.8 °C 7.1 °C 1010.7 hPa SSW 3.2 km/h 12.9 km/h 41% 0 mm
18:39 20.8 °C 7.1 °C 1010.7 hPa SW 9.7 km/h 14.5 km/h 41% 0 mm
18:44 20.6 °C 6.6 °C 1011.1 hPa SW 11.3 km/h 16.1 km/h 40% 0 mm
18:50 20.5 °C 6.1 °C 1011.1 hPa SW 6.4 km/h 14.5 km/h 39% 0 mm
18:55 20.5 °C 6.1 °C 1011.1 hPa SW 17.7 km/h 17.7 km/h 39% 0 mm
19:00 20.3 °C 6.3 °C 1011.1 hPa West 4.8 km/h 16.1 km/h 40% 0 mm
19:05 20.4 °C 6.4 °C 1011.1 hPa WSW 6.4 km/h 12.9 km/h 40% 0 mm
19:10 20.3 °C 6.2 °C 1011.1 hPa SW 12.9 km/h 17.7 km/h 40% 0 mm
19:15 20.1 °C 6.1 °C 1010.7 hPa SW 8 km/h 19.3 km/h 40% 0 mm
19:20 19.8 °C 6.6 °C 1010.7 hPa WSW 9.7 km/h 17.7 km/h 42% 0 mm
19:25 19.8 °C 6.9 °C 1010.7 hPa SSW 9.7 km/h 14.5 km/h 43% 0 mm
19:30 19.8 °C 6.9 °C 1010.7 hPa SW 6.4 km/h 12.9 km/h 43% 0 mm
19:35 19.8 °C 6.8 °C 1010.7 hPa SW 6.4 km/h 14.5 km/h 43% 0 mm
19:40 19.7 °C 7.1 °C 1010.4 hPa SSW 6.4 km/h 16.1 km/h 44% 0 mm
19:45 19.6 °C 7.1 °C 1010.4 hPa SSW 3.2 km/h 11.3 km/h 44% 0 mm
19:50 19.6 °C 6.7 °C 1010 hPa South 8 km/h 14.5 km/h 43% 0 mm
19:53 19.5 °C 6.9 °C 1010 hPa SW 11.3 km/h 12.9 km/h 44% 0 mm
19:58 19.3 °C 7.1 °C 1010 hPa South 3.2 km/h 8 km/h 45% 0 mm
20:03 19 °C 6.8 °C 1010.4 hPa SW 4.8 km/h 11.3 km/h 45% 0 mm
20:08 18.4 °C 6.9 °C 1010.4 hPa SSW 3.2 km/h 6.4 km/h 47% 0 mm
20:13 18.1 °C 6.9 °C 1010 hPa South 6.4 km/h 6.4 km/h 48% 0 mm
20:18 18 °C 6.8 °C 1010 hPa SSW 3.2 km/h 12.9 km/h 48% 0 mm
20:23 17.8 °C 7 °C 1010.4 hPa SSW 1.6 km/h 4.8 km/h 49% 0 mm
20:28 17.6 °C 7 °C 1010.4 hPa South 4.8 km/h 4.8 km/h 50% 0 mm
20:33 17.3 °C 7.1 °C 1010.4 hPa South 3.2 km/h 4.8 km/h 51% 0 mm
20:38 17.1 °C 6.8 °C 1010.4 hPa SSW 1.6 km/h 3.2 km/h 51% 0 mm
20:43 16.9 °C 7 °C 1010.4 hPa South 3.2 km/h 4.8 km/h 52% 0 mm
20:48 16.7 °C 6.8 °C 1010 hPa SSE 3.2 km/h 3.2 km/h 52% 0 mm
20:53 16.4 °C 7.1 °C 1010 hPa SSE 1.6 km/h 3.2 km/h 54% 0 mm
20:58 16.3 °C 7 °C 1010 hPa SSE 4.8 km/h 4.8 km/h 54% 0 mm
21:03 16.2 °C 7.2 °C 1010 hPa SE 3.2 km/h 8 km/h 55% 0 mm
21:08 16.1 °C 7.3 °C 1010 hPa SSE 4.8 km/h 4.8 km/h 56% 0 mm
21:13 16.1 °C 7.3 °C 1010.4 hPa SSE 1.6 km/h 3.2 km/h 56% 0 mm
21:18 16.2 °C 7.4 °C 1010.4 hPa SSE 1.6 km/h 4.8 km/h 56% 0 mm
21:23 16.1 °C 7.3 °C 1010.4 hPa South 3.2 km/h 6.4 km/h 56% 0 mm
21:28 16.2 °C 7.7 °C 1010.4 hPa SSE 3.2 km/h 4.8 km/h 57% 0 mm
21:33 16.2 °C 7.7 °C 1010.4 hPa SSW 6.4 km/h 6.4 km/h 57% 0 mm
21:38 16.2 °C 7.7 °C 1010.4 hPa Calm   4.8 km/h 57% 0 mm
21:43 16.2 °C 7.7 °C 1010.4 hPa SSE 3.2 km/h 4.8 km/h 57% 0 mm
21:48 16.3 °C 7.8 °C 1010 hPa SW 6.4 km/h 9.7 km/h 57% 0 mm
21:53 16.3 °C 7.6 °C 1010 hPa SSE 8 km/h 8 km/h 56% 0 mm
21:59 16.5 °C 7.7 °C 1010 hPa South 8 km/h 11.3 km/h 56% 0 mm
22:04 16.6 °C 7.6 °C 1010 hPa South 9.7 km/h 16.1 km/h 55% 0 mm
22:09 16.7 °C 7.6 °C 1010 hPa SSE 8 km/h 12.9 km/h 55% 0 mm
22:14 16.7 °C 7.8 °C 1010 hPa South 6.4 km/h 12.9 km/h 56% 0 mm
22:19 16.7 °C 7.9 °C 1010 hPa South 6.4 km/h 14.5 km/h 56% 0 mm
22:24 16.7 °C 7.8 °C 1010 hPa South 4.8 km/h 11.3 km/h 56% 0 mm
22:29 16.6 °C 8 °C 1010 hPa SW 11.3 km/h 12.9 km/h 57% 0 mm
22:34 16.4 °C 7.9 °C 1010 hPa WSW 4.8 km/h 9.7 km/h 57% 0 mm
22:39 16.4 °C 7.8 °C 1010 hPa SSW 11.3 km/h 14.5 km/h 57% 0 mm
22:44 16.4 °C 8.2 °C 1010 hPa South 11.3 km/h 11.3 km/h 58% 0 mm
22:49 16.4 °C 7.9 °C 1010 hPa South 4.8 km/h 16.1 km/h 57% 0 mm
22:54 16.4 °C 8.2 °C 1010 hPa South 8 km/h 11.3 km/h 58% 0 mm
22:59 16.4 °C 8.1 °C 1010 hPa SSW 8 km/h 12.9 km/h 58% 0 mm
23:04 16.3 °C 8.3 °C 1010 hPa SSW 6.4 km/h 9.7 km/h 59% 0 mm
23:09 16.3 °C 8.3 °C 1009.7 hPa SSW 9.7 km/h 14.5 km/h 59% 0 mm
23:14 16.3 °C 8.3 °C 1009.7 hPa WSW 8 km/h 14.5 km/h 59% 0 mm
23:19 16.2 °C 8.2 °C 1009.7 hPa SW 4.8 km/h 12.9 km/h 59% 0 mm
23:24 16 °C 8.2 °C 1009.7 hPa South 6.4 km/h 9.7 km/h 60% 0 mm
23:29 15.8 °C 8.3 °C 1010 hPa SSW 8 km/h 11.3 km/h 61% 0 mm
23:34 15.8 °C 8.3 °C 1009.7 hPa SSW 8 km/h 12.9 km/h 61% 0 mm
23:39 15.8 °C 8.3 °C 1009.7 hPa SSW 9.7 km/h 14.5 km/h 61% 0 mm
23:44 15.7 °C 8.2 °C 1009.7 hPa SSE 4.8 km/h 6.4 km/h 61% 0 mm
23:49 15.7 °C 8.4 °C 1009.7 hPa SSW 4.8 km/h 8 km/h 62% 0 mm
23:54 15.6 °C 8.3 °C 1009.7 hPa SSW 4.8 km/h 6.4 km/h 62% 0 mm
23:59 15.4 °C 8.2 °C 1009.7 hPa South 3.2 km/h 8 km/h 62% 0 mm
Compliments of Weather Underground